createdAt,value
2018-10-03T00:02:39.778Z,78.28
2018-10-03T00:05:45.302Z,78.97
2018-10-03T00:08:50.697Z,79.12
2018-10-03T00:11:56.117Z,79.70
2018-10-03T00:15:01.691Z,79.15
2018-10-03T00:18:07.118Z,79.24
2018-10-03T00:21:12.550Z,79.34
2018-10-03T00:24:18.032Z,80.18
2018-10-03T00:27:23.545Z,80.33
2018-10-03T00:30:29.047Z,80.08
2018-10-03T00:33:34.563Z,79.94
2018-10-03T00:36:39.989Z,79.85
2018-10-03T00:39:45.419Z,80.06
2018-10-03T00:42:50.846Z,80.12
2018-10-03T00:45:56.334Z,80.28
2018-10-03T00:49:01.754Z,80.34
2018-10-03T00:52:07.383Z,80.15
2018-10-03T00:55:12.949Z,80.47
2018-10-03T00:58:18.413Z,80.23
2018-10-03T01:01:24.007Z,80.63
2018-10-03T01:04:29.523Z,80.66
2018-10-03T01:07:34.930Z,80.65
2018-10-03T01:10:40.341Z,80.19
2018-10-03T01:13:46.727Z,80.31
2018-10-03T01:16:52.163Z,80.28
2018-10-03T01:19:57.905Z,79.76
2018-10-03T01:23:03.326Z,79.26
2018-10-03T01:26:09.226Z,79.41
2018-10-03T01:29:14.677Z,78.98
2018-10-03T01:32:20.165Z,79.53
2018-10-03T01:35:25.698Z,77.43
2018-10-03T01:38:31.184Z,78.16
2018-10-03T01:41:37.209Z,78.16
2018-10-03T01:44:42.697Z,77.74
2018-10-03T01:47:48.150Z,76.99
2018-10-03T01:50:53.570Z,77.51
2018-10-03T01:53:59.160Z,77.41
2018-10-03T01:57:04.654Z,78.46
2018-10-03T02:00:10.047Z,78.97
2018-10-03T02:03:15.454Z,79.42
2018-10-03T02:06:20.836Z,79.92
2018-10-03T02:09:26.287Z,81.41
2018-10-03T02:12:31.719Z,81.70
2018-10-03T02:15:37.238Z,81.39
2018-10-03T02:18:42.665Z,82.18
2018-10-03T02:21:48.095Z,82.42
2018-10-03T02:24:53.583Z,82.81
2018-10-03T02:27:59.370Z,82.70
2018-10-03T02:31:04.771Z,82.92
2018-10-03T02:34:10.279Z,84.83
2018-10-03T02:37:15.722Z,85.32
2018-10-03T02:40:21.525Z,84.02
2018-10-03T02:43:27.034Z,84.83
2018-10-03T02:46:32.757Z,85.30
2018-10-03T02:49:38.214Z,85.35
2018-10-03T02:52:43.690Z,86.59
2018-10-03T02:55:49.188Z,86.59
2018-10-03T02:58:54.626Z,86.08
2018-10-03T03:02:00.122Z,86.30
2018-10-03T03:05:05.750Z,86.62
2018-10-03T03:08:11.710Z,86.07
2018-10-03T03:11:17.106Z,85.38
2018-10-03T03:14:22.668Z,84.93
2018-10-03T03:17:28.210Z,84.71
2018-10-03T03:20:33.660Z,85.42
2018-10-03T03:23:39.477Z,85.75
2018-10-03T03:26:44.880Z,86.29
2018-10-03T03:29:50.328Z,85.98
2018-10-03T03:32:55.806Z,86.19
2018-10-03T03:36:01.512Z,85.94
2018-10-03T03:39:08.702Z,85.88
2018-10-03T03:42:14.102Z,85.22
2018-10-03T03:45:19.557Z,85.41
2018-10-03T03:48:24.995Z,85.71
2018-10-03T03:51:30.407Z,85.56
2018-10-03T03:54:36.026Z,85.94
2018-10-03T03:57:41.442Z,86.43
2018-10-03T04:00:47.142Z,86.78
2018-10-03T04:03:52.659Z,86.79
2018-10-03T04:06:58.182Z,87.10
2018-10-03T04:10:03.946Z,88.16
2018-10-03T04:13:09.381Z,89.13
2018-10-03T04:16:14.838Z,90.64
2018-10-03T04:19:20.288Z,91.34
2018-10-03T04:22:25.683Z,90.95
2018-10-03T04:25:31.255Z,91.41
2018-10-03T04:28:37.039Z,90.12
2018-10-03T04:31:42.457Z,90.47
2018-10-03T04:34:48.111Z,89.70
2018-10-03T04:37:53.598Z,89.38
2018-10-03T04:40:59.127Z,89.64
2018-10-03T04:44:04.635Z,89.58
2018-10-03T04:47:10.051Z,89.94
2018-10-03T04:50:15.466Z,89.88
2018-10-03T04:53:20.870Z,90.30
2018-10-03T04:56:26.302Z,89.98
2018-10-03T04:59:31.729Z,89.18
2018-10-03T05:02:37.114Z,89.35
2018-10-03T05:05:42.567Z,89.36
2018-10-03T05:08:48.527Z,89.53
2018-10-03T05:11:54.083Z,90.19
2018-10-03T05:15:11.218Z,90.68
2018-10-03T05:18:16.813Z,91.20
2018-10-03T05:21:22.242Z,90.61
2018-10-03T05:24:27.806Z,90.89
2018-10-03T05:27:33.266Z,90.97
2018-10-03T05:30:38.718Z,91.46
2018-10-03T05:33:45.111Z,91.93
2018-10-03T05:36:50.534Z,92.48
2018-10-03T05:39:55.966Z,92.00
2018-10-03T05:43:01.374Z,92.39
2018-10-03T05:46:07.421Z,91.96
2018-10-03T05:49:12.935Z,90.79
2018-10-03T05:52:18.520Z,91.27
2018-10-03T05:55:24.063Z,90.73
2018-10-03T05:58:29.475Z,90.69
2018-10-03T06:01:35.531Z,90.51
2018-10-03T06:04:41.067Z,89.27
2018-10-03T06:07:46.485Z,88.74
2018-10-03T06:10:52.022Z,89.33
2018-10-03T06:13:58.118Z,89.30
2018-10-03T06:17:03.558Z,89.87
2018-10-03T06:20:10.271Z,90.09
2018-10-03T06:23:15.839Z,89.78
2018-10-03T06:26:21.284Z,89.34
2018-10-03T06:29:26.706Z,88.58
2018-10-03T06:32:32.747Z,88.75
2018-10-03T06:35:38.331Z,89.07
2018-10-03T06:38:43.790Z,88.82
2018-10-03T06:41:49.238Z,87.95
2018-10-03T06:44:55.723Z,87.23
2018-10-03T06:48:01.118Z,87.53
2018-10-03T06:51:07.059Z,87.18
2018-10-03T06:54:12.520Z,87.12
2018-10-03T06:57:17.961Z,87.27
2018-10-03T07:00:23.386Z,86.68
2018-10-03T07:03:28.850Z,86.97
2018-10-03T07:06:35.175Z,85.94
2018-10-03T07:09:40.650Z,86.66
2018-10-03T07:12:46.128Z,86.27
2018-10-03T07:15:52.010Z,85.71
2018-10-03T07:18:57.526Z,84.93
2018-10-03T07:22:03.024Z,85.10
2018-10-03T07:25:08.551Z,85.26
2018-10-03T07:28:13.969Z,84.29
2018-10-03T07:31:19.906Z,83.03
2018-10-03T07:34:25.449Z,82.05
2018-10-03T07:37:30.926Z,81.66
2018-10-03T07:40:36.608Z,82.30
2018-10-03T07:43:42.091Z,81.92
2018-10-03T07:46:47.531Z,80.72
2018-10-03T07:49:53.100Z,80.48
2018-10-03T07:52:58.527Z,79.59
2018-10-03T07:56:04.138Z,79.78
2018-10-03T07:59:10.231Z,79.12
2018-10-03T08:02:16.098Z,80.33
2018-10-03T08:08:42.787Z,78.72
2018-10-03T08:11:48.260Z,78.05
2018-10-03T08:14:53.758Z,76.50
2018-10-03T08:17:59.221Z,75.54
2018-10-03T08:21:04.714Z,74.77
2018-10-03T08:24:10.410Z,74.22
2018-10-03T08:27:16.054Z,71.18
2018-10-03T08:30:33.138Z,69.22
2018-10-03T08:33:38.658Z,67.10
2018-10-03T08:36:44.170Z,66.03
2018-10-03T08:39:51.379Z,67.21
2018-10-03T08:42:56.854Z,67.52
2018-10-03T08:46:02.402Z,67.66
2018-10-03T08:49:08.087Z,67.98
2018-10-03T08:52:13.558Z,67.53
2018-10-03T08:55:19.079Z,66.67
2018-10-03T08:58:24.616Z,64.98
2018-10-03T09:01:30.187Z,64.10
2018-10-03T09:04:35.642Z,63.87
2018-10-03T09:07:41.063Z,64.73
2018-10-03T09:10:47.752Z,64.10
2018-10-03T09:13:53.265Z,62.61
2018-10-03T09:16:58.742Z,61.01
2018-10-03T09:20:04.238Z,61.56
2018-10-03T09:23:09.686Z,62.84
2018-10-03T09:26:15.378Z,62.28
2018-10-03T09:29:20.812Z,61.19
2018-10-03T09:32:26.745Z,60.28
2018-10-03T09:35:32.670Z,59.39
2018-10-03T09:38:38.114Z,59.54
2018-10-03T09:41:43.570Z,59.95
2018-10-03T09:44:49.078Z,59.78
2018-10-03T09:47:54.507Z,58.98
2018-10-03T09:51:00.115Z,58.87
2018-10-03T09:54:05.906Z,58.84
2018-10-03T09:57:11.324Z,56.71
2018-10-03T10:00:20.828Z,57.34
2018-10-03T10:03:26.617Z,56.88
2018-10-03T10:06:33.145Z,57.15
2018-10-03T10:09:38.837Z,55.34
2018-10-03T10:12:44.307Z,55.95
2018-10-03T10:15:49.834Z,57.03
2018-10-03T10:18:55.329Z,58.62
2018-10-03T10:22:00.846Z,60.97
2018-10-03T10:25:07.755Z,63.89
2018-10-03T10:28:13.206Z,69.59
2018-10-03T10:31:18.606Z,71.19
2018-10-03T10:34:24.178Z,70.62
2018-10-03T10:37:29.634Z,71.54
2018-10-03T10:40:35.580Z,72.03
2018-10-03T10:43:41.208Z,71.15
2018-10-03T10:46:46.730Z,70.95
2018-10-03T10:49:52.282Z,70.13
2018-10-03T10:52:57.690Z,69.58
2018-10-03T10:56:03.163Z,68.83
2018-10-03T10:59:08.940Z,69.28
2018-10-03T11:02:14.330Z,70.34
2018-10-03T11:05:19.855Z,71.94
2018-10-03T11:08:25.302Z,72.94
2018-10-03T11:11:30.690Z,71.16
2018-10-03T11:14:36.179Z,68.71
2018-10-03T11:17:41.558Z,67.64
2018-10-03T11:20:46.978Z,66.96
2018-10-03T11:23:52.595Z,66.15
2018-10-03T11:26:58.088Z,63.84
2018-10-03T11:30:03.594Z,63.15
2018-10-03T11:33:09.043Z,58.24
2018-10-03T11:36:14.477Z,60.31
2018-10-03T11:39:19.914Z,59.08
2018-10-03T11:42:26.264Z,59.04
2018-10-03T11:45:34.154Z,58.94
2018-10-03T11:48:39.636Z,58.92
2018-10-03T11:51:45.155Z,58.56
2018-10-03T11:54:50.712Z,60.16
2018-10-03T11:57:56.136Z,59.32
2018-10-03T12:01:01.557Z,60.27
2018-10-03T12:04:07.094Z,56.88
2018-10-03T12:07:12.495Z,54.99
2018-10-03T12:10:18.101Z,53.52
2018-10-03T12:13:23.610Z,52.60
2018-10-03T12:16:29.042Z,54.17
2018-10-03T12:19:34.819Z,54.68
2018-10-03T12:22:40.282Z,56.71
2018-10-03T12:25:45.825Z,60.04
2018-10-03T12:28:51.297Z,65.49
2018-10-03T12:31:56.691Z,68.72
2018-10-03T12:35:02.170Z,69.14
2018-10-03T12:38:07.575Z,69.75
2018-10-03T12:41:13.070Z,63.62
2018-10-03T12:44:18.619Z,60.72
2018-10-03T12:47:24.068Z,60.62
2018-10-03T12:50:29.754Z,60.68
2018-10-03T12:53:35.230Z,64.26
2018-10-03T12:56:40.875Z,66.28
2018-10-03T12:59:46.287Z,65.23
2018-10-03T13:02:51.669Z,62.10
2018-10-03T13:05:57.166Z,57.64
2018-10-03T13:09:02.583Z,54.41
2018-10-03T13:12:08.089Z,51.01
2018-10-03T13:15:13.603Z,50.83
2018-10-03T13:18:19.054Z,51.34
2018-10-03T13:21:24.532Z,53.30
2018-10-03T13:24:30.212Z,55.11
2018-10-03T13:27:36.358Z,52.98
2018-10-03T13:30:41.983Z,49.35
2018-10-03T13:33:47.637Z,46.39
2018-10-03T13:36:53.086Z,47.74
2018-10-03T13:39:58.887Z,48.11
2018-10-03T13:43:04.310Z,48.59
2018-10-03T13:46:11.815Z,49.99
2018-10-03T13:49:17.294Z,52.73
2018-10-03T13:52:23.536Z,53.29
2018-10-03T13:55:29.029Z,52.51
2018-10-03T13:58:34.451Z,53.65
2018-10-03T14:01:39.934Z,53.59
2018-10-03T14:04:45.574Z,54.78
2018-10-03T14:07:51.133Z,54.13
2018-10-03T14:10:56.708Z,53.12
2018-10-03T14:14:02.976Z,52.42
2018-10-03T14:17:08.836Z,52.43
2018-10-03T14:20:14.750Z,52.82
2018-10-03T14:23:20.159Z,54.42
2018-10-03T14:26:25.599Z,52.79
2018-10-03T14:29:31.038Z,54.47
2018-10-03T14:32:36.466Z,50.29
2018-10-03T14:35:41.965Z,50.90
2018-10-03T14:38:47.399Z,51.16
2018-10-03T14:41:52.875Z,52.60
2018-10-03T14:44:58.387Z,52.49
2018-10-03T14:48:03.872Z,52.40
2018-10-03T14:51:09.332Z,54.54
2018-10-03T14:54:14.785Z,57.09
2018-10-03T14:57:20.227Z,58.36
2018-10-03T15:00:25.684Z,56.65
2018-10-03T15:03:31.114Z,57.43
2018-10-03T15:06:36.538Z,57.08
2018-10-03T15:09:41.959Z,57.14
2018-10-03T15:12:47.445Z,58.25
2018-10-03T15:15:53.113Z,57.16
2018-10-03T15:18:58.564Z,56.51
2018-10-03T15:22:04.709Z,56.80
2018-10-03T15:25:10.236Z,56.33
2018-10-03T15:28:15.661Z,56.38
2018-10-03T15:31:21.098Z,56.25
2018-10-03T15:34:26.763Z,57.00
2018-10-03T15:37:32.199Z,58.13
2018-10-03T15:40:37.851Z,58.58
2018-10-03T15:43:43.507Z,58.59
2018-10-03T15:46:48.943Z,59.46
2018-10-03T15:49:55.196Z,60.50
2018-10-03T15:53:00.635Z,60.23
2018-10-03T15:56:06.444Z,61.23
2018-10-03T15:59:12.647Z,60.90
2018-10-03T16:02:18.697Z,62.63
2018-10-03T16:05:24.227Z,64.74
2018-10-03T16:08:30.195Z,66.72
2018-10-03T16:11:35.631Z,67.37
2018-10-03T16:14:41.100Z,66.60
2018-10-03T16:17:46.528Z,65.89
2018-10-03T16:20:51.966Z,66.56
2018-10-03T16:23:58.491Z,66.51
2018-10-03T16:27:04.900Z,66.01
2018-10-03T16:30:10.350Z,66.42
2018-10-03T16:33:15.900Z,65.09
2018-10-03T16:36:22.032Z,66.41
2018-10-03T16:39:27.514Z,66.27
2018-10-03T16:42:32.927Z,66.59
2018-10-03T16:45:38.418Z,67.79
2018-10-03T16:48:43.865Z,67.17
2018-10-03T16:51:49.323Z,67.20
2018-10-03T16:54:55.002Z,66.33
2018-10-03T16:58:00.536Z,66.19
2018-10-03T17:01:05.960Z,65.76
2018-10-03T17:04:11.871Z,66.24
2018-10-03T17:07:17.639Z,66.22
2018-10-03T17:10:24.095Z,66.79
2018-10-03T17:13:29.643Z,66.04
2018-10-03T17:16:35.035Z,66.03
2018-10-03T17:19:40.628Z,65.76
2018-10-03T17:22:46.241Z,66.14
2018-10-03T17:25:51.707Z,65.92
2018-10-03T17:28:57.151Z,65.93
2018-10-03T17:32:02.551Z,65.63
2018-10-03T17:35:08.033Z,65.64
2018-10-03T17:38:13.416Z,67.20
2018-10-03T17:41:18.832Z,66.28
2018-10-03T17:44:24.498Z,67.33
2018-10-03T17:47:29.891Z,67.44
2018-10-03T17:50:35.727Z,67.99
2018-10-03T17:53:41.132Z,67.66
2018-10-03T17:56:46.571Z,68.48
2018-10-03T17:59:52.391Z,69.13
2018-10-03T18:02:57.793Z,69.12
2018-10-03T18:06:03.230Z,69.16
2018-10-03T18:09:10.673Z,69.66
2018-10-03T18:12:16.239Z,69.03
2018-10-03T18:15:21.656Z,67.99
2018-10-03T18:18:27.092Z,68.72
2018-10-03T18:21:32.519Z,68.93
2018-10-03T18:24:37.943Z,68.87
2018-10-03T18:27:45.106Z,69.39
2018-10-03T18:30:50.736Z,69.85
2018-10-03T18:33:56.247Z,69.90
2018-10-03T18:37:01.695Z,69.43
2018-10-03T18:40:07.180Z,70.00
2018-10-03T18:43:12.616Z,69.65
2018-10-03T18:46:18.047Z,70.15
2018-10-03T18:49:23.487Z,70.27
2018-10-03T18:52:29.083Z,71.01
2018-10-03T18:55:34.674Z,71.25
2018-10-03T18:58:40.107Z,71.75
2018-10-03T19:01:49.398Z,72.35
2018-10-03T19:05:00.528Z,72.07
2018-10-03T19:08:35.897Z,72.87
2018-10-03T19:11:43.787Z,72.83
2018-10-03T19:14:49.227Z,73.44
2018-10-03T19:17:54.717Z,73.48
2018-10-03T19:21:00.144Z,73.90
2018-10-03T19:24:05.584Z,73.95
2018-10-03T19:27:11.007Z,73.99
2018-10-03T19:30:16.418Z,74.28
2018-10-03T19:33:21.870Z,74.26
2018-10-03T19:36:27.831Z,75.14
2018-10-03T19:39:33.247Z,75.01
2018-10-03T19:42:38.666Z,75.04
2018-10-03T19:45:44.147Z,74.97
2018-10-03T19:48:49.738Z,74.67
2018-10-03T19:51:55.177Z,74.93
2018-10-03T19:55:00.637Z,74.61
2018-10-03T19:58:06.844Z,75.23
2018-10-03T20:01:12.247Z,75.64
2018-10-03T20:04:17.701Z,76.67
2018-10-03T20:07:23.642Z,76.23
2018-10-03T20:10:29.056Z,76.65
2018-10-03T20:13:34.475Z,77.30
2018-10-03T20:16:40.032Z,77.08
2018-10-03T20:19:45.987Z,77.44
2018-10-03T20:22:52.067Z,78.10
2018-10-03T20:25:57.508Z,78.39
2018-10-03T20:29:03.891Z,77.87
2018-10-03T20:32:09.839Z,78.38
2018-10-03T20:35:15.529Z,78.04
2018-10-03T20:38:21.019Z,78.23
2018-10-03T20:41:26.492Z,78.02
2018-10-03T20:44:31.984Z,79.06
2018-10-03T20:47:37.388Z,78.86
2018-10-03T20:50:42.814Z,79.50
2018-10-03T20:53:48.403Z,79.95
2018-10-03T20:56:53.823Z,80.51
2018-10-03T20:59:59.259Z,80.76
2018-10-03T21:03:04.790Z,80.74
2018-10-03T21:06:10.266Z,81.02
2018-10-03T21:09:15.700Z,80.93
2018-10-03T21:12:23.418Z,80.76
2018-10-03T21:15:28.972Z,80.73
2018-10-03T21:18:34.395Z,81.44
2018-10-03T21:21:40.303Z,81.29
2018-10-03T21:24:45.753Z,81.43
2018-10-03T21:27:51.394Z,82.08
2018-10-03T21:30:57.200Z,81.52
2018-10-03T21:34:02.640Z,82.45
2018-10-03T21:37:08.072Z,82.75
2018-10-03T21:40:13.498Z,83.17
2018-10-03T21:43:18.874Z,83.50
2018-10-03T21:46:24.266Z,84.00
2018-10-03T21:49:29.663Z,84.03
2018-10-03T21:52:35.072Z,84.10
2018-10-03T21:55:40.522Z,83.98
2018-10-03T21:58:45.924Z,84.31
2018-10-03T22:01:51.347Z,84.50
2018-10-03T22:04:59.521Z,84.87
2018-10-03T22:08:04.999Z,84.94
2018-10-03T22:11:10.429Z,84.83
2018-10-03T22:14:15.827Z,85.08
2018-10-03T22:17:24.578Z,84.69
2018-10-03T22:20:30.008Z,85.14
2018-10-03T22:23:35.411Z,84.79
2018-10-03T22:26:40.843Z,84.96
2018-10-03T22:29:47.119Z,85.22
2018-10-03T22:32:52.559Z,84.35
2018-10-03T22:35:58.024Z,85.09
2018-10-03T22:39:03.498Z,84.92
2018-10-03T22:42:08.943Z,84.41
2018-10-03T22:45:14.386Z,85.35
2018-10-03T22:48:19.815Z,85.06
2018-10-03T22:51:25.238Z,84.62
2018-10-03T22:54:30.664Z,84.29
2018-10-03T22:57:36.111Z,84.96
2018-10-03T23:00:41.579Z,84.73
2018-10-03T23:03:47.021Z,84.13
2018-10-03T23:06:52.467Z,84.42
2018-10-03T23:09:57.891Z,84.64
2018-10-03T23:13:03.328Z,84.27
2018-10-03T23:16:09.484Z,83.56
2018-10-03T23:19:14.939Z,83.01
2018-10-03T23:22:20.373Z,82.53
2018-10-03T23:25:25.799Z,82.83
2018-10-03T23:28:31.366Z,82.55
2018-10-03T23:31:36.815Z,82.32
2018-10-03T23:34:42.261Z,82.72
2018-10-03T23:37:47.692Z,82.12
2018-10-03T23:40:53.108Z,81.59
2018-10-03T23:43:58.579Z,80.94
2018-10-03T23:47:04.003Z,80.02
2018-10-03T23:50:09.424Z,80.34
2018-10-03T23:53:14.858Z,80.29
2018-10-03T23:56:20.339Z,79.97
2018-10-03T23:59:25.779Z,80.56
